Time;durP1;ratioP1;P1;durP2;ratioP2;P2;SDS_P1;SDS_P2;PMS_P1;PMS_P2;Temp;Humidity;BMP_temperature;BMP_pressure;BME280_temperature;BME280_humidity;BME280_pressure;Samples;Min_cycle;Max_cycle;Signal;HPM_P1;HPM_P2
2021/08/30 00:00:54;;;;;;;;;;;;;;;;;;5015168;28;19916;-81
2021/08/30 00:03:19;;;;;;;;;;;;;;;;;;5015568;28;19921;-81
2021/08/30 00:05:45;;;;;;;;;;;;;;;;;;4998992;28;20355;-81
2021/08/30 00:08:10;;;;;;;;;;;;;;;;;;5015164;28;19913;-81
2021/08/30 00:10:36;;;;;;;;;;;;;;;;;;5015345;28;19909;-81
2021/08/30 00:13:02;;;;;;;;;;;;;;;;;;5032002;28;19909;-81
2021/08/30 00:15:27;;;;;;;;;;;;;;;;;;4998302;28;19924;-81
2021/08/30 00:17:53;;;;;;;;;;;;;;;;;;5031977;28;19952;-81
2021/08/30 00:20:19;;;;;;;;;;;;;;;;;;5014415;28;19916;-81
2021/08/30 00:22:44;;;;;;;;;;;;;;;;;;5015065;28;20003;-81
2021/08/30 00:25:10;;;;;;;;;;;;;;;;;;5015667;28;19971;-81
2021/08/30 00:27:35;;;;;;;;;;;;;;;;;;5014981;28;19908;-81
2021/08/30 00:30:00;;;;;;;;;;;;;;;;;;5031630;28;20015;-81
2021/08/30 00:32:26;;;;;;;;;;;;;;;;;;5015302;28;19996;-81
2021/08/30 00:34:51;;;;;;;;;;;;;;;;;;4998340;28;19940;-81
2021/08/30 00:37:18;;;;;;;;;;;;;;;;;;5015292;28;20341;-81
2021/08/30 00:39:44;;;;;;;;;;;;;;;;;;5015002;28;20004;-81
2021/08/30 00:42:10;;;;;;;;;;;;;;;;;;5014778;28;20325;-81
2021/08/30 00:44:35;;;;;;;;;;;;;;;;;;5014914;28;20429;-80
2021/08/30 00:47:01;;;;;;;;;;;;;;;;;;5030713;28;19952;-81
2021/08/30 00:49:26;;;;;;;;;;;;;;;;;;5030524;28;19917;-81
2021/08/30 00:51:51;;;;;;;;;;;;;;;;;;5014601;28;19919;-81
2021/08/30 00:54:17;;;;;;;;;;;;;;;;;;5031335;28;19920;-81
2021/08/30 00:56:43;;;;;;;;;;;;;;;;;;5010914;28;20282;-81
2021/08/30 00:59:11;;;;;;;;;;;;;;;;;;5031445;28;19909;-81
2021/08/30 01:01:37;;;;;;;;;;;;;;;;;;5018377;28;19919;-81
2021/08/30 01:04:03;;;;;;;;;;;;;;;;;;5014354;28;20310;-81
2021/08/30 01:06:47;;;;;;;;;;;;;;;;;;5013895;28;19920;-81
2021/08/30 01:09:15;;;;;;;;;;;;;;;;;;5031072;28;19919;-81
2021/08/30 01:11:42;;;;;;;;;;;;;;;;;;5014381;28;20337;-81
2021/08/30 01:14:08;;;;;;;;;;;;;;;;;;5014435;28;19917;-81
2021/08/30 01:16:33;;;;;;;;;;;;;;;;;;5013943;28;19916;-81
2021/08/30 01:18:59;;;;;;;;;;;;;;;;;;5014162;28;20279;-81
2021/08/30 01:21:32;;;;;;;;;;;;;;;;;;4997727;28;19921;-81
2021/08/30 01:24:00;;;;;;;;;;;;;;;;;;5014416;28;19913;-81
2021/08/30 01:26:26;;;;;;;;;;;;;;;;;;5033577;28;19917;-81
2021/08/30 01:29:00;;;;;;;;;;;;;;;;;;4995001;28;19972;-81
2021/08/30 01:31:27;;;;;;;;;;;;;;;;;;4996372;28;19909;-80
2021/08/30 01:33:53;;;;;;;;;;;;;;;;;;5015373;28;19910;-81
2021/08/30 01:36:18;;;;;;;;;;;;;;;;;;5014537;28;19913;-81
2021/08/30 01:38:45;;;;;;;;;;;;;;;;;;4998423;28;19980;-81
2021/08/30 01:41:14;;;;;;;;;;;;;;;;;;5011112;28;20004;-81
2021/08/30 01:43:39;;;;;;;;;;;;;;;;;;5034715;28;20401;-80
2021/08/30 01:46:04;;;;;;;;;;;;;;;;;;5051252;28;19940;-81
2021/08/30 01:48:30;;;;;;;;;;;;;;;;;;5034156;28;19913;-81
2021/08/30 01:50:58;;;;;;;;;;;;;;;;;;5018416;28;19975;-81
2021/08/30 01:53:23;;;;;;;;;;;;;;;;;;5034636;28;20389;-81
2021/08/30 01:55:52;;;;;;;;;;;;;;;;;;5034022;28;19923;-81
2021/08/30 02:03:19;;;;;;;;;;;;;;;;;;5034134;28;20007;-81
2021/08/30 02:05:48;;;;;;;;;;;;;;;;;;5034465;28;20520;-80
2021/08/30 02:08:17;;;;;;;;;;;;;;;;;;5034252;28;20040;-80
2021/08/30 02:10:45;;;;;;;;;;;;;;;;;;5025531;28;19913;-80
2021/08/30 02:13:11;;;;;;;;;;;;;;;;;;5014244;28;19948;-80
2021/08/30 02:15:37;;;;;;;;;;;;;;;;;;4997581;28;20375;-81
2021/08/30 02:18:03;;;;;;;;;;;;;;;;;;5014498;28;19913;-80
2021/08/30 02:20:29;;;;;;;;;;;;;;;;;;5013915;28;20387;-81
2021/08/30 02:22:54;;;;;;;;;;;;;;;;;;5024995;28;19917;-80
2021/08/30 02:25:20;;;;;;;;;;;;;;;;;;5045096;28;19913;-81
2021/08/30 02:27:45;;;;;;;;;;;;;;;;;;5013799;28;19909;-80
2021/08/30 02:30:22;;;;;;;;;;;;;;;;;;5034122;28;20019;-81
2021/08/30 02:32:47;;;;;;;;;;;;;;;;;;5008817;28;19920;-80
2021/08/30 02:35:13;;;;;;;;;;;;;;;;;;5050256;28;19913;-81
2021/08/30 02:37:39;;;;;;;;;;;;;;;;;;5033864;28;19913;-81
2021/08/30 02:40:04;;;;;;;;;;;;;;;;;;5049911;28;19917;-80
2021/08/30 02:42:30;;;;;;;;;;;;;;;;;;5032315;28;20015;-81
2021/08/30 02:44:56;;;;;;;;;;;;;;;;;;5032442;28;20458;-81
2021/08/30 02:47:21;;;;;;;;;;;;;;;;;;5050550;28;19982;-81
2021/08/30 02:49:47;;;;;;;;;;;;;;;;;;5016669;28;19921;-80
2021/08/30 02:52:12;;;;;;;;;;;;;;;;;;5000646;28;19955;-80
2021/08/30 02:54:38;;;;;;;;;;;;;;;;;;5033273;28;19956;-81
2021/08/30 02:57:04;;;;;;;;;;;;;;;;;;5032612;28;19917;-80
2021/08/30 02:59:29;;;;;;;;;;;;;;;;;;5003898;28;20433;-79
2021/08/30 03:01:54;;;;;;;;;;;;;;;;;;5017859;28;19917;-80
2021/08/30 03:04:20;;;;;;;;;;;;;;;;;;5016818;28;20270;-81
2021/08/30 03:06:45;;;;;;;;;;;;;;;;;;5016339;28;19913;-81
2021/08/30 03:09:10;;;;;;;;;;;;;;;;;;5032862;28;20352;-81
2021/08/30 03:11:36;;;;;;;;;;;;;;;;;;5017133;28;19909;-81
2021/08/30 03:14:01;;;;;;;;;;;;;;;;;;5033179;28;19931;-81
2021/08/30 03:16:27;;;;;;;;;;;;;;;;;;5032950;28;19909;-81
2021/08/30 03:18:52;;;;;;;;;;;;;;;;;;5032413;28;19947;-80
2021/08/30 03:21:18;;;;;;;;;;;;;;;;;;5016465;28;20402;-81
2021/08/30 03:23:43;;;;;;;;;;;;;;;;;;5016536;28;19915;-81
2021/08/30 03:26:09;;;;;;;;;;;;;;;;;;5012088;28;19917;-81
2021/08/30 03:28:35;;;;;;;;;;;;;;;;;;5029536;28;19913;-80
2021/08/30 03:31:00;;;;;;;;;;;;;;;;;;5030656;28;20422;-80
2021/08/30 03:33:26;;;;;;;;;;;;;;;;;;5016088;28;19935;-80
2021/08/30 03:35:54;;;;;;;;;;;;;;;;;;5016078;28;19909;-80
2021/08/30 03:38:20;;;;;;;;;;;;;;;;;;5032263;28;19997;-80
2021/08/30 03:40:46;;;;;;;;;;;;;;;;;;5015970;28;19948;-80
2021/08/30 03:43:11;;;;;;;;;;;;;;;;;;4999496;28;20001;-80
2021/08/30 03:45:37;;;;;;;;;;;;;;;;;;4999364;28;20443;-80
2021/08/30 03:48:02;;;;;;;;;;;;;;;;;;5015664;28;19959;-80
2021/08/30 03:50:28;;;;;;;;;;;;;;;;;;4999235;28;19975;-80
2021/08/30 03:52:53;;;;;;;;;;;;;;;;;;4999681;28;19999;-80
2021/08/30 03:55:19;;;;;;;;;;;;;;;;;;5015554;28;19916;-80
2021/08/30 03:57:44;;;;;;;;;;;;;;;;;;5015402;28;20312;-80
2021/08/30 04:00:09;;;;;;;;;;;;;;;;;;4999099;28;19913;-80
2021/08/30 04:02:35;;;;;;;;;;;;;;;;;;5030440;28;19958;-80
2021/08/30 04:05:01;;;;;;;;;;;;;;;;;;5048532;28;20355;-80
2021/08/30 04:07:26;;;;;;;;;;;;;;;;;;5032110;28;19909;-80
2021/08/30 04:09:52;;;;;;;;;;;;;;;;;;5032498;28;19909;-81
2021/08/30 04:12:17;;;;;;;;;;;;;;;;;;5032064;28;19917;-80
2021/08/30 04:14:43;;;;;;;;;;;;;;;;;;5021090;28;19963;-80
2021/08/30 04:17:08;;;;;;;;;;;;;;;;;;5015345;28;19913;-80
2021/08/30 04:19:35;;;;;;;;;;;;;;;;;;5031103;28;19921;-80
2021/08/30 04:22:00;;;;;;;;;;;;;;;;;;5015427;28;19909;-80
2021/08/30 04:24:26;;;;;;;;;;;;;;;;;;5031694;28;19913;-80
2021/08/30 04:26:51;;;;;;;;;;;;;;;;;;5014930;28;19955;-80
2021/08/30 04:29:17;;;;;;;;;;;;;;;;;;5014984;28;19916;-80
2021/08/30 04:31:42;;;;;;;;;;;;;;;;;;5031704;28;19955;-80
2021/08/30 04:34:07;;;;;;;;;;;;;;;;;;5015193;28;20043;-80
2021/08/30 04:36:33;;;;;;;;;;;;;;;;;;5015117;28;20378;-80
2021/08/30 04:38:59;;;;;;;;;;;;;;;;;;4998421;28;19925;-80
2021/08/30 04:41:24;;;;;;;;;;;;;;;;;;5014869;28;19917;-80
2021/08/30 04:43:50;;;;;;;;;;;;;;;;;;4998668;28;20339;-81
2021/08/30 04:46:15;;;;;;;;;;;;;;;;;;5015287;28;20409;-80
2021/08/30 04:48:40;;;;;;;;;;;;;;;;;;5014679;28;19971;-81
2021/08/30 04:51:06;;;;;;;;;;;;;;;;;;5014579;28;19963;-80
2021/08/30 04:53:31;;;;;;;;;;;;;;;;;;4998174;28;19913;-81
2021/08/30 04:55:56;;;;;;;;;;;;;;;;;;5014923;28;19996;-81
2021/08/30 04:58:22;;;;;;;;;;;;;;;;;;5027555;28;19909;-80
2021/08/30 05:00:48;;;;;;;;;;;;;;;;;;5044193;28;19917;-81
2021/08/30 05:03:13;;;;;;;;;;;;;;;;;;5014951;28;19909;-81
2021/08/30 05:05:38;;;;;;;;;;;;;;;;;;5010379;28;19914;-81
2021/08/30 05:08:04;;;;;;;;;;;;;;;;;;5011023;28;19917;-81
2021/08/30 05:10:29;;;;;;;;;;;;;;;;;;5041234;28;20008;-81
2021/08/30 05:12:54;;;;;;;;;;;;;;;;;;5013896;28;19967;-80
2021/08/30 05:15:19;;;;;;;;;;;;;;;;;;5031060;28;20351;-81
2021/08/30 05:17:45;;;;;;;;;;;;;;;;;;5014414;28;19939;-80
2021/08/30 05:20:10;;;;;;;;;;;;;;;;;;5014929;28;19913;-80
2021/08/30 05:22:36;;;;;;;;;;;;;;;;;;5031100;28;19952;-80
2021/08/30 05:25:01;;;;;;;;;;;;;;;;;;5010553;28;20367;-80
2021/08/30 05:27:26;;;;;;;;;;;;;;;;;;5027350;28;19917;-80
2021/08/30 05:29:52;;;;;;;;;;;;;;;;;;5010750;28;20360;-80
2021/08/30 05:32:17;;;;;;;;;;;;;;;;;;5027661;28;20374;-80
2021/08/30 05:34:43;;;;;;;;;;;;;;;;;;5030565;28;19917;-81
2021/08/30 05:37:08;;;;;;;;;;;;;;;;;;5030321;28;19913;-81
2021/08/30 05:39:36;;;;;;;;;;;;;;;;;;5014300;28;19917;-80
2021/08/30 05:42:01;;;;;;;;;;;;;;;;;;5010871;28;20004;-80
2021/08/30 05:44:29;;;;;;;;;;;;;;;;;;5031086;28;19913;-81
2021/08/30 05:46:54;;;;;;;;;;;;;;;;;;5014024;28;19913;-82
2021/08/30 05:49:20;;;;;;;;;;;;;;;;;;5005608;28;19924;-79
2021/08/30 05:51:47;;;;;;;;;;;;;;;;;;5018239;28;20274;-81
2021/08/30 05:54:12;;;;;;;;;;;;;;;;;;5011291;28;19909;-81
2021/08/30 05:56:37;;;;;;;;;;;;;;;;;;5013764;28;19940;-82
2021/08/30 05:59:04;;;;;;;;;;;;;;;;;;5011104;28;20409;-80
2021/08/30 06:01:29;;;;;;;;;;;;;;;;;;5030641;28;19917;-80
2021/08/30 06:03:56;;;;;;;;;;;;;;;;;;5013887;28;19956;-79
2021/08/30 06:06:21;;;;;;;;;;;;;;;;;;5028247;28;19913;-81
2021/08/30 06:08:46;;;;;;;;;;;;;;;;;;4991018;28;20384;-81
2021/08/30 06:11:12;;;;;;;;;;;;;;;;;;5024682;28;20375;-79
2021/08/30 06:13:37;;;;;;;;;;;;;;;;;;5020031;28;19956;-80
2021/08/30 06:16:03;;;;;;;;;;;;;;;;;;5012912;28;19929;-80
2021/08/30 06:18:28;;;;;;;;;;;;;;;;;;5016395;28;19920;-80
2021/08/30 06:20:53;;;;;;;;;;;;;;;;;;5001348;28;19916;-80
2021/08/30 06:23:19;;;;;;;;;;;;;;;;;;5017453;28;19917;-79
2021/08/30 06:25:44;;;;;;;;;;;;;;;;;;5017465;28;19912;-80
2021/08/30 06:28:09;;;;;;;;;;;;;;;;;;5017089;28;20371;-80
2021/08/30 06:30:35;;;;;;;;;;;;;;;;;;5017370;28;19909;-80
2021/08/30 06:33:00;;;;;;;;;;;;;;;;;;5001353;28;20317;-79
2021/08/30 06:35:26;;;;;;;;;;;;;;;;;;5033604;28;19909;-79
2021/08/30 06:37:51;;;;;;;;;;;;;;;;;;5032581;28;19909;-80
2021/08/30 06:40:17;;;;;;;;;;;;;;;;;;5034018;28;19909;-79
2021/08/30 06:42:43;;;;;;;;;;;;;;;;;;5016753;28;19913;-79
2021/08/30 06:45:09;;;;;;;;;;;;;;;;;;5033280;28;19909;-82
2021/08/30 06:47:35;;;;;;;;;;;;;;;;;;5012935;28;19918;-81
2021/08/30 06:50:00;;;;;;;;;;;;;;;;;;5015156;28;19921;-82
2021/08/30 06:52:26;;;;;;;;;;;;;;;;;;5013812;28;19920;-81
2021/08/30 06:54:51;;;;;;;;;;;;;;;;;;5017246;28;20006;-81
2021/08/30 06:57:16;;;;;;;;;;;;;;;;;;5016735;28;19955;-82
2021/08/30 06:59:42;;;;;;;;;;;;;;;;;;5032688;28;19956;-82
2021/08/30 07:02:07;;;;;;;;;;;;;;;;;;5032114;28;19960;-82
2021/08/30 07:04:32;;;;;;;;;;;;;;;;;;4994395;28;20391;-81
2021/08/30 07:06:58;;;;;;;;;;;;;;;;;;5027013;28;19917;-81
2021/08/30 07:09:24;;;;;;;;;;;;;;;;;;5032583;28;20331;-81
2021/08/30 07:11:49;;;;;;;;;;;;;;;;;;5016548;28;19920;-81
2021/08/30 07:14:15;;;;;;;;;;;;;;;;;;5033056;28;19913;-81
2021/08/30 07:16:40;;;;;;;;;;;;;;;;;;5016140;28;19917;-81
2021/08/30 07:19:05;;;;;;;;;;;;;;;;;;5016752;28;19917;-81
2021/08/30 07:21:31;;;;;;;;;;;;;;;;;;5015945;28;20363;-81
2021/08/30 07:23:56;;;;;;;;;;;;;;;;;;4999565;28;19930;-81
2021/08/30 07:26:21;;;;;;;;;;;;;;;;;;4999310;28;19909;-81
2021/08/30 07:28:47;;;;;;;;;;;;;;;;;;5009306;28;20004;-81
2021/08/30 07:31:12;;;;;;;;;;;;;;;;;;5032320;28;20268;-83
2021/08/30 07:33:38;;;;;;;;;;;;;;;;;;5032353;28;20008;-83
2021/08/30 07:36:03;;;;;;;;;;;;;;;;;;5031481;28;19909;-83
2021/08/30 07:38:29;;;;;;;;;;;;;;;;;;5007444;28;20378;-83
2021/08/30 07:40:54;;;;;;;;;;;;;;;;;;5002097;28;19917;-83
2021/08/30 07:43:19;;;;;;;;;;;;;;;;;;5029003;28;19914;-84
2021/08/30 07:45:45;;;;;;;;;;;;;;;;;;5032628;28;19920;-83
2021/08/30 07:48:10;;;;;;;;;;;;;;;;;;5006559;28;19913;-83
2021/08/30 07:50:35;;;;;;;;;;;;;;;;;;5021115;28;19917;-83
2021/08/30 07:53:01;;;;;;;;;;;;;;;;;;5030499;28;19920;-83
2021/08/30 07:55:28;;;;;;;;;;;;;;;;;;5014499;28;19909;-82
2021/08/30 07:57:54;;;;;;;;;;;;;;;;;;4997704;28;19920;-82
2021/08/30 08:00:19;;;;;;;;;;;;;;;;;;4998710;28;20318;-82
2021/08/30 08:02:44;;;;;;;;;;;;;;;;;;5015386;28;19920;-82
2021/08/30 08:05:10;;;;;;;;;;;;;;;;;;5015750;28;19916;-82
2021/08/30 08:07:35;;;;;;;;;;;;;;;;;;5006414;28;19921;-83
2021/08/30 08:10:00;;;;;;;;;;;;;;;;;;5031587;28;20305;-83
2021/08/30 08:12:26;;;;;;;;;;;;;;;;;;5012149;28;19939;-83
2021/08/30 08:14:51;;;;;;;;;;;;;;;;;;5009773;28;19913;-83
2021/08/30 08:17:16;;;;;;;;;;;;;;;;;;5013544;28;19967;-83
2021/08/30 08:19:42;;;;;;;;;;;;;;;;;;4985398;28;20024;-83
2021/08/30 08:22:07;;;;;;;;;;;;;;;;;;5026063;28;19967;-82
2021/08/30 08:24:32;;;;;;;;;;;;;;;;;;5014637;28;20007;-84
2021/08/30 08:26:59;;;;;;;;;;;;;;;;;;5010756;28;19995;-84
2021/08/30 08:29:24;;;;;;;;;;;;;;;;;;5015037;28;19956;-84
2021/08/30 08:31:49;;;;;;;;;;;;;;;;;;4995493;28;19975;-84
2021/08/30 08:34:15;;;;;;;;;;;;;;;;;;4995287;28;19909;-84
2021/08/30 08:36:41;;;;;;;;;;;;;;;;;;5002888;28;19913;-84
2021/08/30 08:39:07;;;;;;;;;;;;;;;;;;5015410;28;20288;-84
2021/08/30 08:41:36;;;;;;;;;;;;;;;;;;4998957;28;19916;-84
2021/08/30 08:44:01;;;;;;;;;;;;;;;;;;5015290;28;19967;-85
2021/08/30 08:46:27;;;;;;;;;;;;;;;;;;4997908;28;20329;-82
2021/08/30 08:48:52;;;;;;;;;;;;;;;;;;5014524;28;19920;-82
2021/08/30 08:51:18;;;;;;;;;;;;;;;;;;5031301;28;20375;-82
2021/08/30 08:53:43;;;;;;;;;;;;;;;;;;5014266;28;19912;-81
2021/08/30 08:56:13;;;;;;;;;;;;;;;;;;5014953;28;19909;-82
2021/08/30 08:58:40;;;;;;;;;;;;;;;;;;5014649;28;19913;-82
2021/08/30 09:01:10;;;;;;;;;;;;;;;;;;4996823;28;19916;-82
2021/08/30 09:03:35;;;;;;;;;;;;;;;;;;5012503;28;20264;-81
2021/08/30 09:06:04;;;;;;;;;;;;;;;;;;4995301;28;19967;-81
2021/08/30 09:08:41;;;;;;;;;;;;;;;;;;5028514;28;19925;-82
2021/08/30 09:11:16;;;;;;;;;;;;;;;;;;4998569;28;19924;-82
2021/08/30 09:13:47;;;;;;;;;;;;;;;;;;4998371;28;20363;-82
2021/08/30 09:16:16;;;;;;;;;;;;;;;;;;5014187;28;20405;-82
2021/08/30 09:18:41;;;;;;;;;;;;;;;;;;4997934;28;20003;-82
2021/08/30 09:21:09;;;;;;;;;;;;;;;;;;4996854;28;20460;-82
2021/08/30 09:23:34;;;;;;;;;;;;;;;;;;5014044;28;19908;-82
2021/08/30 09:26:00;;;;;;;;;;;;;;;;;;4998024;28;20397;-82
2021/08/30 09:28:29;;;;;;;;;;;;;;;;;;4997761;28;19909;-82
2021/08/30 09:30:57;;;;;;;;;;;;;;;;;;4997912;28;19967;-82
2021/08/30 09:33:22;;;;;;;;;;;;;;;;;;5014359;28;19913;-82
2021/08/30 09:35:54;;;;;;;;;;;;;;;;;;4996706;28;20355;-80
2021/08/30 09:38:20;;;;;;;;;;;;;;;;;;5013732;28;19917;-81
2021/08/30 09:40:45;;;;;;;;;;;;;;;;;;4998019;28;19909;-83
2021/08/30 09:43:17;;;;;;;;;;;;;;;;;;4998139;28;19909;-80
2021/08/30 09:45:43;;;;;;;;;;;;;;;;;;4997488;28;19909;-82
2021/08/30 09:48:12;;;;;;;;;;;;;;;;;;4997085;28;20275;-81
2021/08/30 09:50:42;;;;;;;;;;;;;;;;;;5031148;28;19978;-84
2021/08/30 09:53:08;;;;;;;;;;;;;;;;;;5050587;28;19920;-84
2021/08/30 09:55:35;;;;;;;;;;;;;;;;;;5026999;28;19932;-85
2021/08/30 09:58:02;;;;;;;;;;;;;;;;;;5005801;28;20378;-83
2021/08/30 10:00:29;;;;;;;;;;;;;;;;;;5029207;28;19959;-84
2021/08/30 10:02:58;;;;;;;;;;;;;;;;;;5001560;28;20282;-84
2021/08/30 10:05:24;;;;;;;;;;;;;;;;;;5034080;28;19956;-82
2021/08/30 10:07:49;;;;;;;;;;;;;;;;;;5017193;28;19955;-83
2021/08/30 10:10:16;;;;;;;;;;;;;;;;;;5001186;28;19917;-83
2021/08/30 10:12:41;;;;;;;;;;;;;;;;;;5000584;28;19931;-84
2021/08/30 10:15:07;;;;;;;;;;;;;;;;;;5000912;28;19996;-84
2021/08/30 10:17:32;;;;;;;;;;;;;;;;;;5000867;28;19913;-84
2021/08/30 10:19:58;;;;;;;;;;;;;;;;;;5017411;28;19921;-84
2021/08/30 10:22:24;;;;;;;;;;;;;;;;;;5016914;28;19951;-83
2021/08/30 10:24:49;;;;;;;;;;;;;;;;;;5034157;28;19917;-90
2021/08/30 10:27:26;;;;;;;;;;;;;;;;;;5018894;28;19913;-90
2021/08/30 10:29:54;;;;;;;;;;;;;;;;;;5018123;28;19916;-90
2021/08/30 10:32:27;;;;;;;;;;;;;;;;;;5035402;28;19913;-91
2021/08/30 10:34:53;;;;;;;;;;;;;;;;;;5035442;28;19909;-91
2021/08/30 10:37:22;;;;;;;;;;;;;;;;;;5018714;28;20043;-91
2021/08/30 10:39:52;;;;;;;;;;;;;;;;;;5035220;28;19974;-88
2021/08/30 10:42:18;;;;;;;;;;;;;;;;;;5018996;28;19909;-87
2021/08/30 10:44:55;;;;;;;;;;;;;;;;;;5018515;28;20051;-88
2021/08/30 10:47:24;;;;;;;;;;;;;;;;;;5034455;28;20480;-87
2021/08/30 10:49:51;;;;;;;;;;;;;;;;;;5001942;28;19943;-86
2021/08/30 10:52:18;;;;;;;;;;;;;;;;;;4997306;28;19963;-86
2021/08/30 10:54:53;;;;;;;;;;;;;;;;;;4997574;28;19959;-86
2021/08/30 10:57:31;;;;;;;;;;;;;;;;;;5015969;28;20315;-86
2021/08/30 10:59:58;;;;;;;;;;;;;;;;;;5000738;28;19913;-88
2021/08/30 11:02:34;;;;;;;;;;;;;;;;;;5001767;28;20321;-89
2021/08/30 11:04:59;;;;;;;;;;;;;;;;;;5000614;28;19909;-89
2021/08/30 11:07:25;;;;;;;;;;;;;;;;;;5001689;28;19974;-89
2021/08/30 11:09:53;;;;;;;;;;;;;;;;;;5001617;28;19917;-87
2021/08/30 11:12:19;;;;;;;;;;;;;;;;;;4997867;28;20040;-91
2021/08/30 11:14:52;;;;;;;;;;;;;;;;;;5013683;28;20015;-85
2021/08/30 11:17:18;;;;;;;;;;;;;;;;;;5013526;28;19965;-85
2021/08/30 11:19:43;;;;;;;;;;;;;;;;;;4996750;28;19976;-85
2021/08/30 11:22:09;;;;;;;;;;;;;;;;;;5013182;28;19910;-85
2021/08/30 11:24:36;;;;;;;;;;;;;;;;;;5013366;28;19916;-85
2021/08/30 11:27:04;;;;;;;;;;;;;;;;;;5013233;28;19909;-85
2021/08/30 11:29:30;;;;;;;;;;;;;;;;;;5013299;28;19920;-85
2021/08/30 11:31:56;;;;;;;;;;;;;;;;;;5013083;28;20000;-85
2021/08/30 11:34:31;;;;;;;;;;;;;;;;;;5013104;28;20014;-85
2021/08/30 11:36:58;;;;;;;;;;;;;;;;;;5013020;28;19920;-85
2021/08/30 11:39:24;;;;;;;;;;;;;;;;;;5013297;28;20276;-85
2021/08/30 11:42:00;;;;;;;;;;;;;;;;;;5013034;28;19913;-85
2021/08/30 11:44:25;;;;;;;;;;;;;;;;;;5013260;28;20276;-85
2021/08/30 11:46:56;;;;;;;;;;;;;;;;;;5012734;28;19916;-85
2021/08/30 11:49:29;;;;;;;;;;;;;;;;;;5031093;28;19917;-85
2021/08/30 11:51:55;;;;;;;;;;;;;;;;;;5032458;28;20007;-85
2021/08/30 11:54:30;;;;;;;;;;;;;;;;;;5032620;28;20405;-84
2021/08/30 11:56:59;;;;;;;;;;;;;;;;;;5032329;28;19920;-85
2021/08/30 11:59:26;;;;;;;;;;;;;;;;;;5035095;28;19959;-85
2021/08/30 12:01:51;;;;;;;;;;;;;;;;;;5019031;28;19908;-85
2021/08/30 12:04:17;;;;;;;;;;;;;;;;;;5035771;28;19962;-85
2021/08/30 12:06:53;;;;;;;;;;;;;;;;;;5019073;28;19909;-85
2021/08/30 12:09:19;;;;;;;;;;;;;;;;;;5019119;28;20019;-85
2021/08/30 12:11:53;;;;;;;;;;;;;;;;;;5018883;28;20564;-85
2021/08/30 12:14:21;;;;;;;;;;;;;;;;;;5019062;28;19919;-84
2021/08/30 12:16:46;;;;;;;;;;;;;;;;;;5018765;28;19916;-85
2021/08/30 12:19:12;;;;;;;;;;;;;;;;;;5019127;28;19913;-85
2021/08/30 12:21:38;;;;;;;;;;;;;;;;;;5018786;28;19908;-84
2021/08/30 12:24:04;;;;;;;;;;;;;;;;;;5019073;28;19974;-85
2021/08/30 12:26:29;;;;;;;;;;;;;;;;;;5017934;28;20417;-85
2021/08/30 12:28:56;;;;;;;;;;;;;;;;;;5034930;28;19935;-85
2021/08/30 12:31:32;;;;;;;;;;;;;;;;;;5018489;28;20010;-85
2021/08/30 12:34:12;;;;;;;;;;;;;;;;;;5019299;28;19916;-85
2021/08/30 12:36:38;;;;;;;;;;;;;;;;;;5018569;28;19932;-84
2021/08/30 12:39:04;;;;;;;;;;;;;;;;;;5018545;28;19947;-85
2021/08/30 12:41:30;;;;;;;;;;;;;;;;;;5018433;28;19928;-84
2021/08/30 12:43:56;;;;;;;;;;;;;;;;;;4999958;28;19939;-85
2021/08/30 12:46:22;;;;;;;;;;;;;;;;;;4998818;28;19909;-85
2021/08/30 12:48:47;;;;;;;;;;;;;;;;;;5015205;28;19935;-85
2021/08/30 12:51:13;;;;;;;;;;;;;;;;;;5015055;28;19913;-85
2021/08/30 12:53:38;;;;;;;;;;;;;;;;;;4998469;28;19913;-85
2021/08/30 12:56:04;;;;;;;;;;;;;;;;;;5015050;28;19916;-85
2021/08/30 12:58:29;;;;;;;;;;;;;;;;;;5014786;28;20373;-85
2021/08/30 13:00:55;;;;;;;;;;;;;;;;;;5013503;28;19913;-85
2021/08/30 13:03:21;;;;;;;;;;;;;;;;;;5018239;28;19913;-84
2021/08/30 13:05:47;;;;;;;;;;;;;;;;;;5017938;28;19913;-85
2021/08/30 13:08:13;;;;;;;;;;;;;;;;;;5017790;28;19920;-85
2021/08/30 13:10:38;;;;;;;;;;;;;;;;;;5018204;28;19916;-85
2021/08/30 13:13:04;;;;;;;;;;;;;;;;;;5018040;28;19996;-84
2021/08/30 13:15:29;;;;;;;;;;;;;;;;;;5018066;28;19909;-83
2021/08/30 13:17:55;;;;;;;;;;;;;;;;;;5034531;28;20023;-83
2021/08/30 13:20:21;;;;;;;;;;;;;;;;;;5017713;28;19920;-83
2021/08/30 13:22:47;;;;;;;;;;;;;;;;;;5017816;28;19909;-83
2021/08/30 13:25:13;;;;;;;;;;;;;;;;;;5017755;28;19916;-83
2021/08/30 13:27:39;;;;;;;;;;;;;;;;;;5016917;28;19938;-83
2021/08/30 13:30:05;;;;;;;;;;;;;;;;;;5017770;28;20011;-83
2021/08/30 13:32:31;;;;;;;;;;;;;;;;;;5034335;28;20306;-83
2021/08/30 13:34:56;;;;;;;;;;;;;;;;;;5017500;28;19912;-83
2021/08/30 13:37:21;;;;;;;;;;;;;;;;;;5001261;28;19921;-83
2021/08/30 13:39:46;;;;;;;;;;;;;;;;;;4994932;28;20373;-83
2021/08/30 13:42:12;;;;;;;;;;;;;;;;;;4994974;28;19916;-82
2021/08/30 13:44:37;;;;;;;;;;;;;;;;;;4994902;28;19917;-83
2021/08/30 13:47:03;;;;;;;;;;;;;;;;;;4994427;28;19917;-82
2021/08/30 13:49:28;;;;;;;;;;;;;;;;;;5014154;28;19963;-83
2021/08/30 13:51:54;;;;;;;;;;;;;;;;;;4997699;28;20031;-83
2021/08/30 13:54:19;;;;;;;;;;;;;;;;;;4998107;28;19909;-83
2021/08/30 13:56:44;;;;;;;;;;;;;;;;;;5014523;28;20393;-83
2021/08/30 13:59:09;;;;;;;;;;;;;;;;;;4998611;28;20425;-83
2021/08/30 14:01:35;;;;;;;;;;;;;;;;;;5017677;28;19912;-83
2021/08/30 14:04:01;;;;;;;;;;;;;;;;;;5017484;28;19909;-82
2021/08/30 14:06:26;;;;;;;;;;;;;;;;;;5016956;28;20309;-82
2021/08/30 14:08:51;;;;;;;;;;;;;;;;;;5017444;28;19912;-83
2021/08/30 14:11:17;;;;;;;;;;;;;;;;;;5034212;28;19913;-83
2021/08/30 14:13:42;;;;;;;;;;;;;;;;;;5017417;28;19909;-83
2021/08/30 14:16:08;;;;;;;;;;;;;;;;;;5033811;28;19912;-82
2021/08/30 14:18:35;;;;;;;;;;;;;;;;;;5017203;28;19913;-83
2021/08/30 14:21:00;;;;;;;;;;;;;;;;;;5016915;28;20285;-82
2021/08/30 14:23:25;;;;;;;;;;;;;;;;;;5017116;28;19908;-83
2021/08/30 14:25:51;;;;;;;;;;;;;;;;;;5017413;28;19916;-82
2021/08/30 14:28:16;;;;;;;;;;;;;;;;;;5017041;28;19908;-82
2021/08/30 14:30:43;;;;;;;;;;;;;;;;;;5024302;28;19913;-83
2021/08/30 14:33:09;;;;;;;;;;;;;;;;;;5010630;28;20046;-82
2021/08/30 14:35:36;;;;;;;;;;;;;;;;;;5010034;28;19909;-82
2021/08/30 14:38:02;;;;;;;;;;;;;;;;;;5027670;28;19963;-83
2021/08/30 14:40:27;;;;;;;;;;;;;;;;;;5013969;28;19941;-83
2021/08/30 14:42:53;;;;;;;;;;;;;;;;;;5013943;28;20275;-83
2021/08/30 14:45:20;;;;;;;;;;;;;;;;;;5030880;28;20413;-83
2021/08/30 14:47:45;;;;;;;;;;;;;;;;;;5016982;28;20337;-82
2021/08/30 14:50:11;;;;;;;;;;;;;;;;;;5000688;28;19913;-83
2021/08/30 14:52:36;;;;;;;;;;;;;;;;;;5017415;28;19960;-83
2021/08/30 14:55:03;;;;;;;;;;;;;;;;;;5000586;28;19909;-83
2021/08/30 14:57:28;;;;;;;;;;;;;;;;;;5000569;28;20005;-82
2021/08/30 14:59:54;;;;;;;;;;;;;;;;;;5023635;28;20007;-83
2021/08/30 15:02:19;;;;;;;;;;;;;;;;;;5020585;28;19999;-82
2021/08/30 15:04:44;;;;;;;;;;;;;;;;;;5019885;28;19970;-82
2021/08/30 15:07:10;;;;;;;;;;;;;;;;;;5037112;28;19913;-82
2021/08/30 15:09:35;;;;;;;;;;;;;;;;;;5037143;28;19916;-84
2021/08/30 15:12:01;;;;;;;;;;;;;;;;;;5036862;28;19909;-82
2021/08/30 15:14:26;;;;;;;;;;;;;;;;;;5036613;28;19934;-83
2021/08/30 15:16:51;;;;;;;;;;;;;;;;;;5036181;28;20005;-83
2021/08/30 15:19:17;;;;;;;;;;;;;;;;;;5019826;28;20343;-82
2021/08/30 15:21:42;;;;;;;;;;;;;;;;;;5019721;28;19956;-82
2021/08/30 15:24:07;;;;;;;;;;;;;;;;;;5019952;28;19977;-83
2021/08/30 15:26:33;;;;;;;;;;;;;;;;;;5013161;28;19913;-83
2021/08/30 15:28:59;;;;;;;;;;;;;;;;;;5030301;28;20427;-83
2021/08/30 15:31:25;;;;;;;;;;;;;;;;;;5015278;28;19920;-83
2021/08/30 15:33:50;;;;;;;;;;;;;;;;;;5032543;28;20295;-83
2021/08/30 15:36:15;;;;;;;;;;;;;;;;;;5032532;28;20006;-83
2021/08/30 15:38:41;;;;;;;;;;;;;;;;;;5033009;28;20003;-82
2021/08/30 15:41:06;;;;;;;;;;;;;;;;;;5033243;28;19963;-83
2021/08/30 15:43:31;;;;;;;;;;;;;;;;;;5032804;28;19963;-83
2021/08/30 15:45:57;;;;;;;;;;;;;;;;;;5032556;28;19916;-83
2021/08/30 15:48:22;;;;;;;;;;;;;;;;;;5032233;28;19975;-82
2021/08/30 15:50:47;;;;;;;;;;;;;;;;;;5015210;28;19913;-83
2021/08/30 15:53:13;;;;;;;;;;;;;;;;;;4999572;28;19951;-82
2021/08/30 15:55:40;;;;;;;;;;;;;;;;;;5000143;28;20378;-83
2021/08/30 15:58:06;;;;;;;;;;;;;;;;;;4999495;28;20000;-82
2021/08/30 16:00:31;;;;;;;;;;;;;;;;;;5011351;28;20018;-82
2021/08/30 16:02:57;;;;;;;;;;;;;;;;;;5018981;28;19974;-83
2021/08/30 16:05:22;;;;;;;;;;;;;;;;;;5018772;28;19916;-83
2021/08/30 16:07:48;;;;;;;;;;;;;;;;;;5019100;28;19943;-83
2021/08/30 16:10:20;;;;;;;;;;;;;;;;;;5019337;28;19909;-83
2021/08/30 16:12:50;;;;;;;;;;;;;;;;;;5036476;28;19912;-84
2021/08/30 16:15:17;;;;;;;;;;;;;;;;;;5019006;28;19913;-83
2021/08/30 16:17:42;;;;;;;;;;;;;;;;;;5035172;28;19951;-85
2021/08/30 16:20:08;;;;;;;;;;;;;;;;;;5018704;28;20318;-84
2021/08/30 16:22:33;;;;;;;;;;;;;;;;;;5019074;28;20294;-84
2021/08/30 16:24:59;;;;;;;;;;;;;;;;;;5019112;28;19920;-84
2021/08/30 16:27:24;;;;;;;;;;;;;;;;;;5018603;28;19969;-84
2021/08/30 16:29:49;;;;;;;;;;;;;;;;;;5018995;28;19915;-84
2021/08/30 16:32:15;;;;;;;;;;;;;;;;;;5007550;28;19920;-84
2021/08/30 16:34:41;;;;;;;;;;;;;;;;;;4995398;28;19924;-84
2021/08/30 16:37:07;;;;;;;;;;;;;;;;;;4995816;28;19917;-84
2021/08/30 16:39:33;;;;;;;;;;;;;;;;;;4995901;28;20406;-83
2021/08/30 16:41:59;;;;;;;;;;;;;;;;;;4995917;28;19913;-84
2021/08/30 16:44:24;;;;;;;;;;;;;;;;;;4995530;28;19916;-84